CheckWX is a tool to help pilots better visualize weather data.  It is not intended as a substitute for an official pre-flight weather briefing.

17:55:50 UTC

UUOB TAF
Belgorod International Airport
Belgorod, Russian Federation
TAF UUOB 241700Z 2418/2503 24005MPS 9999 BKN030

Mar-24@
18:00 UTC

Mar-24 @ 18:00 UTC

Mar-25@
03:00 UTC

Mar-25 @ 03:00 UTC

TAF UUOB 241700Z 2418/2503 24005MPS 9999 BKN030
Wind
  • 240° at 10 KTS
Cloud Levels
  • Broken at 3,000' AGL